sensor_id;sensor_type;location;lat;lon;timestamp;P1;durP1;ratioP1;P2;durP2;ratioP2
41711;SDS011;27399;51.516;13.670;2022-07-06T00:02:00;4.30;;;1.55;;
41711;SDS011;27399;51.516;13.670;2022-07-06T00:04:26;2.45;;;1.13;;
41711;SDS011;27399;51.516;13.670;2022-07-06T00:06:51;3.53;;;1.15;;
41711;SDS011;27399;51.516;13.670;2022-07-06T00:09:17;3.70;;;1.20;;
41711;SDS011;27399;51.516;13.670;2022-07-06T00:11:43;4.50;;;1.40;;
41711;SDS011;27399;51.516;13.670;2022-07-06T00:14:08;4.97;;;1.45;;
41711;SDS011;27399;51.516;13.670;2022-07-06T00:16:34;4.22;;;2.03;;
41711;SDS011;27399;51.516;13.670;2022-07-06T00:19:00;2.97;;;1.50;;
41711;SDS011;27399;51.516;13.670;2022-07-06T00:21:26;2.58;;;1.65;;
41711;SDS011;27399;51.516;13.670;2022-07-06T00:23:51;4.28;;;1.52;;
41711;SDS011;27399;51.516;13.670;2022-07-06T00:26:17;4.75;;;2.00;;
41711;SDS011;27399;51.516;13.670;2022-07-06T00:28:43;2.72;;;1.45;;
41711;SDS011;27399;51.516;13.670;2022-07-06T00:31:09;7.05;;;1.80;;
41711;SDS011;27399;51.516;13.670;2022-07-06T00:33:35;3.85;;;1.50;;
41711;SDS011;27399;51.516;13.670;2022-07-06T00:36:00;6.53;;;1.65;;
41711;SDS011;27399;51.516;13.670;2022-07-06T00:38:26;2.83;;;1.90;;
41711;SDS011;27399;51.516;13.670;2022-07-06T00:40:52;7.50;;;1.85;;
41711;SDS011;27399;51.516;13.670;2022-07-06T00:43:17;5.35;;;1.70;;
41711;SDS011;27399;51.516;13.670;2022-07-06T00:45:43;8.73;;;1.83;;
41711;SDS011;27399;51.516;13.670;2022-07-06T00:48:09;7.30;;;2.38;;
41711;SDS011;27399;51.516;13.670;2022-07-06T00:50:35;5.38;;;2.17;;
41711;SDS011;27399;51.516;13.670;2022-07-06T00:53:02;3.55;;;1.90;;
41711;SDS011;27399;51.516;13.670;2022-07-06T00:55:29;6.85;;;2.53;;
41711;SDS011;27399;51.516;13.670;2022-07-06T00:57:57;12.38;;;1.85;;
41711;SDS011;27399;51.516;13.670;2022-07-06T01:00:26;5.75;;;1.77;;
41711;SDS011;27399;51.516;13.670;2022-07-06T01:02:53;3.28;;;1.60;;
41711;SDS011;27399;51.516;13.670;2022-07-06T01:05:19;4.68;;;2.00;;
41711;SDS011;27399;51.516;13.670;2022-07-06T01:07:46;7.70;;;2.00;;
41711;SDS011;27399;51.516;13.670;2022-07-06T01:10:14;4.28;;;2.42;;
41711;SDS011;27399;51.516;13.670;2022-07-06T01:12:41;4.57;;;1.80;;
41711;SDS011;27399;51.516;13.670;2022-07-06T01:15:09;5.95;;;1.80;;
41711;SDS011;27399;51.516;13.670;2022-07-06T01:17:40;4.13;;;2.08;;
41711;SDS011;27399;51.516;13.670;2022-07-06T01:20:20;4.28;;;2.10;;
41711;SDS011;27399;51.516;13.670;2022-07-06T01:22:47;3.50;;;1.58;;
41711;SDS011;27399;51.516;13.670;2022-07-06T01:25:14;5.03;;;2.10;;
41711;SDS011;27399;51.516;13.670;2022-07-06T01:27:40;4.30;;;1.60;;
41711;SDS011;27399;51.516;13.670;2022-07-06T01:30:11;7.30;;;1.95;;
41711;SDS011;27399;51.516;13.670;2022-07-06T01:32:38;4.70;;;1.88;;
41711;SDS011;27399;51.516;13.670;2022-07-06T01:35:05;7.50;;;1.80;;
41711;SDS011;27399;51.516;13.670;2022-07-06T01:37:31;4.10;;;1.67;;
41711;SDS011;27399;51.516;13.670;2022-07-06T01:39:58;3.22;;;2.13;;
41711;SDS011;27399;51.516;13.670;2022-07-06T01:42:27;4.82;;;1.80;;
41711;SDS011;27399;51.516;13.670;2022-07-06T01:44:53;3.15;;;1.83;;
41711;SDS011;27399;51.516;13.670;2022-07-06T01:47:19;4.78;;;2.15;;
41711;SDS011;27399;51.516;13.670;2022-07-06T01:49:45;2.97;;;1.88;;
41711;SDS011;27399;51.516;13.670;2022-07-06T01:52:11;3.97;;;2.05;;
41711;SDS011;27399;51.516;13.670;2022-07-06T01:54:36;7.80;;;2.38;;
41711;SDS011;27399;51.516;13.670;2022-07-06T01:57:02;11.98;;;2.00;;
41711;SDS011;27399;51.516;13.670;2022-07-06T01:59:28;3.25;;;1.85;;
41711;SDS011;27399;51.516;13.670;2022-07-06T02:01:53;3.13;;;1.70;;
41711;SDS011;27399;51.516;13.670;2022-07-06T02:04:19;4.65;;;2.42;;
41711;SDS011;27399;51.516;13.670;2022-07-06T02:06:44;9.05;;;1.77;;
41711;SDS011;27399;51.516;13.670;2022-07-06T02:09:10;3.75;;;2.17;;
41711;SDS011;27399;51.516;13.670;2022-07-06T02:11:36;4.20;;;2.00;;
41711;SDS011;27399;51.516;13.670;2022-07-06T02:14:01;2.67;;;2.05;;
41711;SDS011;27399;51.516;13.670;2022-07-06T02:16:27;5.05;;;2.10;;
41711;SDS011;27399;51.516;13.670;2022-07-06T02:18:52;4.38;;;1.95;;
41711;SDS011;27399;51.516;13.670;2022-07-06T02:21:18;2.92;;;2.13;;
41711;SDS011;27399;51.516;13.670;2022-07-06T02:23:43;7.63;;;2.42;;
41711;SDS011;27399;51.516;13.670;2022-07-06T02:26:09;2.92;;;1.75;;
41711;SDS011;27399;51.516;13.670;2022-07-06T02:28:35;2.80;;;1.60;;
41711;SDS011;27399;51.516;13.670;2022-07-06T02:31:00;1.90;;;1.65;;
41711;SDS011;27399;51.516;13.670;2022-07-06T02:33:26;3.10;;;1.88;;
41711;SDS011;27399;51.516;13.670;2022-07-06T02:35:52;4.50;;;2.00;;
41711;SDS011;27399;51.516;13.670;2022-07-06T02:38:18;3.90;;;2.05;;
41711;SDS011;27399;51.516;13.670;2022-07-06T02:40:43;5.07;;;1.80;;
41711;SDS011;27399;51.516;13.670;2022-07-06T02:43:09;4.88;;;1.90;;
41711;SDS011;27399;51.516;13.670;2022-07-06T02:45:34;2.38;;;1.70;;
41711;SDS011;27399;51.516;13.670;2022-07-06T02:48:00;4.30;;;2.03;;
41711;SDS011;27399;51.516;13.670;2022-07-06T02:50:26;7.47;;;1.83;;
41711;SDS011;27399;51.516;13.670;2022-07-06T02:52:52;4.40;;;1.80;;
41711;SDS011;27399;51.516;13.670;2022-07-06T02:55:17;2.70;;;1.85;;
41711;SDS011;27399;51.516;13.670;2022-07-06T02:57:43;5.70;;;1.88;;
41711;SDS011;27399;51.516;13.670;2022-07-06T03:00:09;2.92;;;1.95;;
41711;SDS011;27399;51.516;13.670;2022-07-06T03:02:36;4.35;;;2.45;;
41711;SDS011;27399;51.516;13.670;2022-07-06T03:05:02;3.30;;;2.35;;
41711;SDS011;27399;51.516;13.670;2022-07-06T03:07:28;2.17;;;1.80;;
41711;SDS011;27399;51.516;13.670;2022-07-06T03:09:54;6.15;;;2.45;;
41711;SDS011;27399;51.516;13.670;2022-07-06T03:12:19;4.28;;;1.80;;
41711;SDS011;27399;51.516;13.670;2022-07-06T03:14:45;4.00;;;2.17;;
41711;SDS011;27399;51.516;13.670;2022-07-06T03:17:11;4.65;;;2.10;;
41711;SDS011;27399;51.516;13.670;2022-07-06T03:19:36;6.97;;;1.90;;
41711;SDS011;27399;51.516;13.670;2022-07-06T03:22:02;7.88;;;2.72;;
41711;SDS011;27399;51.516;13.670;2022-07-06T03:24:28;3.63;;;1.77;;
41711;SDS011;27399;51.516;13.670;2022-07-06T03:26:54;4.22;;;2.00;;
41711;SDS011;27399;51.516;13.670;2022-07-06T03:29:19;6.00;;;2.15;;
41711;SDS011;27399;51.516;13.670;2022-07-06T03:31:45;5.93;;;2.30;;
41711;SDS011;27399;51.516;13.670;2022-07-06T03:34:11;5.47;;;2.20;;
41711;SDS011;27399;51.516;13.670;2022-07-06T03:36:37;3.92;;;1.95;;
41711;SDS011;27399;51.516;13.670;2022-07-06T03:39:03;8.02;;;2.53;;
41711;SDS011;27399;51.516;13.670;2022-07-06T03:41:28;6.50;;;2.33;;
41711;SDS011;27399;51.516;13.670;2022-07-06T03:43:54;2.58;;;1.90;;
41711;SDS011;27399;51.516;13.670;2022-07-06T03:46:20;5.88;;;2.05;;
41711;SDS011;27399;51.516;13.670;2022-07-06T03:48:45;4.30;;;2.08;;
41711;SDS011;27399;51.516;13.670;2022-07-06T03:51:11;3.33;;;2.10;;
41711;SDS011;27399;51.516;13.670;2022-07-06T03:53:37;6.78;;;2.22;;
41711;SDS011;27399;51.516;13.670;2022-07-06T03:56:02;4.22;;;2.20;;
41711;SDS011;27399;51.516;13.670;2022-07-06T03:58:47;6.15;;;2.20;;
41711;SDS011;27399;51.516;13.670;2022-07-06T04:01:12;7.53;;;2.45;;
41711;SDS011;27399;51.516;13.670;2022-07-06T04:03:38;8.98;;;1.90;;
41711;SDS011;27399;51.516;13.670;2022-07-06T04:06:04;4.78;;;2.63;;
41711;SDS011;27399;51.516;13.670;2022-07-06T04:08:30;6.30;;;2.45;;
41711;SDS011;27399;51.516;13.670;2022-07-06T04:10:55;3.92;;;2.10;;
41711;SDS011;27399;51.516;13.670;2022-07-06T04:13:21;4.50;;;2.10;;
41711;SDS011;27399;51.516;13.670;2022-07-06T04:15:47;4.13;;;1.77;;
41711;SDS011;27399;51.516;13.670;2022-07-06T04:18:12;4.47;;;1.90;;
41711;SDS011;27399;51.516;13.670;2022-07-06T04:20:38;4.40;;;1.77;;
41711;SDS011;27399;51.516;13.670;2022-07-06T04:23:04;4.32;;;1.88;;
41711;SDS011;27399;51.516;13.670;2022-07-06T04:25:30;7.53;;;2.60;;
41711;SDS011;27399;51.516;13.670;2022-07-06T04:27:55;3.47;;;1.90;;
41711;SDS011;27399;51.516;13.670;2022-07-06T04:30:22;2.85;;;1.70;;
41711;SDS011;27399;51.516;13.670;2022-07-06T04:32:47;5.78;;;2.05;;
41711;SDS011;27399;51.516;13.670;2022-07-06T04:35:13;2.03;;;1.60;;
41711;SDS011;27399;51.516;13.670;2022-07-06T04:37:39;2.85;;;1.88;;
41711;SDS011;27399;51.516;13.670;2022-07-06T04:40:04;3.25;;;1.70;;
41711;SDS011;27399;51.516;13.670;2022-07-06T04:42:30;2.28;;;1.65;;
41711;SDS011;27399;51.516;13.670;2022-07-06T04:44:56;3.65;;;2.00;;
41711;SDS011;27399;51.516;13.670;2022-07-06T04:47:22;3.28;;;1.75;;
41711;SDS011;27399;51.516;13.670;2022-07-06T04:49:47;3.35;;;1.58;;
41711;SDS011;27399;51.516;13.670;2022-07-06T04:52:13;4.25;;;1.48;;
41711;SDS011;27399;51.516;13.670;2022-07-06T04:54:38;4.05;;;1.65;;
41711;SDS011;27399;51.516;13.670;2022-07-06T04:57:04;5.47;;;1.60;;
41711;SDS011;27399;51.516;13.670;2022-07-06T04:59:30;2.88;;;1.55;;
41711;SDS011;27399;51.516;13.670;2022-07-06T05:01:56;6.72;;;1.35;;
41711;SDS011;27399;51.516;13.670;2022-07-06T05:04:21;2.50;;;1.30;;
41711;SDS011;27399;51.516;13.670;2022-07-06T05:06:48;1.52;;;1.40;;
41711;SDS011;27399;51.516;13.670;2022-07-06T05:09:14;2.85;;;1.13;;
41711;SDS011;27399;51.516;13.670;2022-07-06T05:11:39;2.05;;;1.30;;
41711;SDS011;27399;51.516;13.670;2022-07-06T05:14:05;3.33;;;1.27;;
41711;SDS011;27399;51.516;13.670;2022-07-06T05:16:31;3.85;;;1.30;;
41711;SDS011;27399;51.516;13.670;2022-07-06T05:18:57;2.45;;;1.00;;
41711;SDS011;27399;51.516;13.670;2022-07-06T05:21:23;2.33;;;1.08;;
41711;SDS011;27399;51.516;13.670;2022-07-06T05:23:49;1.98;;;0.98;;
41711;SDS011;27399;51.516;13.670;2022-07-06T05:26:15;6.15;;;1.35;;
41711;SDS011;27399;51.516;13.670;2022-07-06T05:28:41;1.95;;;0.98;;
41711;SDS011;27399;51.516;13.670;2022-07-06T05:31:06;2.30;;;0.80;;
41711;SDS011;27399;51.516;13.670;2022-07-06T05:33:32;2.78;;;1.02;;
41711;SDS011;27399;51.516;13.670;2022-07-06T05:35:57;2.13;;;0.93;;
41711;SDS011;27399;51.516;13.670;2022-07-06T05:38:23;4.10;;;0.80;;
41711;SDS011;27399;51.516;13.670;2022-07-06T05:40:50;13.10;;;1.05;;
41711;SDS011;27399;51.516;13.670;2022-07-06T05:43:16;4.18;;;0.90;;
41711;SDS011;27399;51.516;13.670;2022-07-06T05:45:42;2.15;;;0.80;;
41711;SDS011;27399;51.516;13.670;2022-07-06T05:48:08;4.93;;;0.80;;
41711;SDS011;27399;51.516;13.670;2022-07-06T05:50:52;2.80;;;0.73;;
41711;SDS011;27399;51.516;13.670;2022-07-06T05:53:18;6.18;;;1.20;;
41711;SDS011;27399;51.516;13.670;2022-07-06T05:55:45;7.20;;;1.23;;
41711;SDS011;27399;51.516;13.670;2022-07-06T05:58:11;5.10;;;1.00;;
41711;SDS011;27399;51.516;13.670;2022-07-06T06:00:36;3.90;;;0.85;;
41711;SDS011;27399;51.516;13.670;2022-07-06T06:03:02;2.85;;;0.88;;
41711;SDS011;27399;51.516;13.670;2022-07-06T06:05:28;1.25;;;0.80;;
41711;SDS011;27399;51.516;13.670;2022-07-06T06:07:53;3.92;;;0.60;;
41711;SDS011;27399;51.516;13.670;2022-07-06T06:10:19;4.20;;;1.00;;
41711;SDS011;27399;51.516;13.670;2022-07-06T06:12:47;1.70;;;0.68;;
41711;SDS011;27399;51.516;13.670;2022-07-06T06:15:14;2.25;;;0.80;;
41711;SDS011;27399;51.516;13.670;2022-07-06T06:17:40;1.73;;;0.57;;
41711;SDS011;27399;51.516;13.670;2022-07-06T06:20:07;1.88;;;0.77;;
41711;SDS011;27399;51.516;13.670;2022-07-06T06:22:47;2.47;;;0.75;;
41711;SDS011;27399;51.516;13.670;2022-07-06T06:25:35;2.75;;;0.80;;
41711;SDS011;27399;51.516;13.670;2022-07-06T06:28:03;8.15;;;1.15;;
41711;SDS011;27399;51.516;13.670;2022-07-06T06:30:30;3.40;;;0.98;;
41711;SDS011;27399;51.516;13.670;2022-07-06T06:33:07;6.18;;;0.98;;
41711;SDS011;27399;51.516;13.670;2022-07-06T06:35:35;3.47;;;0.70;;
41711;SDS011;27399;51.516;13.670;2022-07-06T06:38:01;1.20;;;1.02;;
41711;SDS011;27399;51.516;13.670;2022-07-06T06:40:26;2.80;;;0.68;;
41711;SDS011;27399;51.516;13.670;2022-07-06T06:42:52;3.83;;;0.70;;
41711;SDS011;27399;51.516;13.670;2022-07-06T06:45:18;4.10;;;0.85;;
41711;SDS011;27399;51.516;13.670;2022-07-06T06:47:43;4.93;;;0.57;;
41711;SDS011;27399;51.516;13.670;2022-07-06T06:50:09;4.68;;;0.75;;
41711;SDS011;27399;51.516;13.670;2022-07-06T06:52:35;2.63;;;0.85;;
41711;SDS011;27399;51.516;13.670;2022-07-06T06:55:00;5.78;;;0.85;;
41711;SDS011;27399;51.516;13.670;2022-07-06T06:57:26;2.67;;;0.70;;
41711;SDS011;27399;51.516;13.670;2022-07-06T06:59:54;2.88;;;0.73;;
41711;SDS011;27399;51.516;13.670;2022-07-06T07:02:20;2.08;;;0.77;;
41711;SDS011;27399;51.516;13.670;2022-07-06T07:04:45;1.35;;;0.70;;
41711;SDS011;27399;51.516;13.670;2022-07-06T07:07:11;4.80;;;1.10;;
41711;SDS011;27399;51.516;13.670;2022-07-06T07:09:37;2.00;;;0.80;;
41711;SDS011;27399;51.516;13.670;2022-07-06T07:12:02;5.05;;;1.10;;
41711;SDS011;27399;51.516;13.670;2022-07-06T07:14:28;2.17;;;0.90;;
41711;SDS011;27399;51.516;13.670;2022-07-06T07:16:54;3.60;;;0.80;;
41711;SDS011;27399;51.516;13.670;2022-07-06T07:19:19;2.17;;;0.90;;
41711;SDS011;27399;51.516;13.670;2022-07-06T07:21:45;7.60;;;1.10;;
41711;SDS011;27399;51.516;13.670;2022-07-06T07:24:11;2.92;;;0.80;;
41711;SDS011;27399;51.516;13.670;2022-07-06T07:26:36;2.65;;;1.00;;
41711;SDS011;27399;51.516;13.670;2022-07-06T07:29:02;2.00;;;0.55;;
41711;SDS011;27399;51.516;13.670;2022-07-06T07:31:28;3.72;;;0.60;;
41711;SDS011;27399;51.516;13.670;2022-07-06T07:33:53;4.93;;;1.00;;
41711;SDS011;27399;51.516;13.670;2022-07-06T07:36:22;4.63;;;0.70;;
41711;SDS011;27399;51.516;13.670;2022-07-06T07:38:49;4.05;;;1.02;;
41711;SDS011;27399;51.516;13.670;2022-07-06T07:41:15;10.88;;;1.02;;
41711;SDS011;27399;51.516;13.670;2022-07-06T07:43:42;7.20;;;0.73;;
41711;SDS011;27399;51.516;13.670;2022-07-06T07:46:08;1.48;;;0.73;;
41711;SDS011;27399;51.516;13.670;2022-07-06T07:48:33;0.88;;;0.70;;
41711;SDS011;27399;51.516;13.670;2022-07-06T07:50:59;3.70;;;0.80;;
41711;SDS011;27399;51.516;13.670;2022-07-06T07:53:25;1.67;;;0.63;;
41711;SDS011;27399;51.516;13.670;2022-07-06T07:55:51;3.65;;;0.77;;
41711;SDS011;27399;51.516;13.670;2022-07-06T07:58:17;2.75;;;0.65;;
41711;SDS011;27399;51.516;13.670;2022-07-06T08:00:42;1.48;;;0.68;;
41711;SDS011;27399;51.516;13.670;2022-07-06T08:03:08;2.80;;;0.60;;
41711;SDS011;27399;51.516;13.670;2022-07-06T08:05:34;2.65;;;0.77;;
41711;SDS011;27399;51.516;13.670;2022-07-06T08:08:00;2.67;;;0.90;;
41711;SDS011;27399;51.516;13.670;2022-07-06T08:10:25;2.83;;;0.65;;
41711;SDS011;27399;51.516;13.670;2022-07-06T08:12:51;1.45;;;0.60;;
41711;SDS011;27399;51.516;13.670;2022-07-06T08:15:16;3.55;;;0.80;;
41711;SDS011;27399;51.516;13.670;2022-07-06T08:17:42;8.30;;;1.00;;
41711;SDS011;27399;51.516;13.670;2022-07-06T08:20:08;3.58;;;0.70;;
41711;SDS011;27399;51.516;13.670;2022-07-06T08:22:37;0.93;;;0.60;;
41711;SDS011;27399;51.516;13.670;2022-07-06T08:25:03;2.55;;;0.60;;
41711;SDS011;27399;51.516;13.670;2022-07-06T08:27:30;2.30;;;0.80;;
41711;SDS011;27399;51.516;13.670;2022-07-06T08:29:56;3.03;;;0.80;;
41711;SDS011;27399;51.516;13.670;2022-07-06T08:32:21;3.67;;;1.17;;
41711;SDS011;27399;51.516;13.670;2022-07-06T08:34:47;2.05;;;0.63;;
41711;SDS011;27399;51.516;13.670;2022-07-06T08:37:13;1.30;;;0.60;;
41711;SDS011;27399;51.516;13.670;2022-07-06T08:39:39;1.90;;;0.68;;
41711;SDS011;27399;51.516;13.670;2022-07-06T08:42:05;3.58;;;0.80;;
41711;SDS011;27399;51.516;13.670;2022-07-06T08:44:33;7.65;;;1.30;;
41711;SDS011;27399;51.516;13.670;2022-07-06T08:47:02;2.47;;;0.75;;
41711;SDS011;27399;51.516;13.670;2022-07-06T08:49:31;6.95;;;1.42;;
41711;SDS011;27399;51.516;13.670;2022-07-06T08:52:00;2.53;;;0.80;;
41711;SDS011;27399;51.516;13.670;2022-07-06T08:54:27;1.52;;;0.65;;
41711;SDS011;27399;51.516;13.670;2022-07-06T08:56:53;5.40;;;1.00;;
41711;SDS011;27399;51.516;13.670;2022-07-06T08:59:19;5.07;;;0.80;;
41711;SDS011;27399;51.516;13.670;2022-07-06T09:01:45;3.80;;;0.80;;
41711;SDS011;27399;51.516;13.670;2022-07-06T09:04:12;3.70;;;0.82;;
41711;SDS011;27399;51.516;13.670;2022-07-06T09:06:40;2.95;;;0.73;;
41711;SDS011;27399;51.516;13.670;2022-07-06T09:09:08;1.48;;;0.57;;
41711;SDS011;27399;51.516;13.670;2022-07-06T09:11:35;2.45;;;0.60;;
41711;SDS011;27399;51.516;13.670;2022-07-06T09:14:03;2.28;;;0.90;;
41711;SDS011;27399;51.516;13.670;2022-07-06T09:16:29;2.83;;;0.80;;
41711;SDS011;27399;51.516;13.670;2022-07-06T09:18:57;5.22;;;0.70;;
41711;SDS011;27399;51.516;13.670;2022-07-06T09:21:26;13.70;;;0.77;;
41711;SDS011;27399;51.516;13.670;2022-07-06T09:24:08;1.92;;;0.73;;
41711;SDS011;27399;51.516;13.670;2022-07-06T09:26:35;2.60;;;0.60;;
41711;SDS011;27399;51.516;13.670;2022-07-06T09:29:01;1.95;;;0.77;;
41711;SDS011;27399;51.516;13.670;2022-07-06T09:31:27;2.58;;;0.63;;
41711;SDS011;27399;51.516;13.670;2022-07-06T09:33:54;0.85;;;0.70;;
41711;SDS011;27399;51.516;13.670;2022-07-06T09:39:23;2.88;;;0.77;;
41711;SDS011;27399;51.516;13.670;2022-07-06T09:41:54;2.72;;;0.75;;
41711;SDS011;27399;51.516;13.670;2022-07-06T09:44:22;4.57;;;1.17;;
41711;SDS011;27399;51.516;13.670;2022-07-06T09:46:48;4.07;;;0.70;;
41711;SDS011;27399;51.516;13.670;2022-07-06T09:49:16;1.45;;;0.75;;
41711;SDS011;27399;51.516;13.670;2022-07-06T09:51:52;2.65;;;0.68;;
41711;SDS011;27399;51.516;13.670;2022-07-06T09:54:29;4.82;;;0.70;;
41711;SDS011;27399;51.516;13.670;2022-07-06T09:56:55;2.53;;;0.55;;
41711;SDS011;27399;51.516;13.670;2022-07-06T09:59:23;1.88;;;0.73;;
41711;SDS011;27399;51.516;13.670;2022-07-06T10:01:53;5.47;;;0.98;;
41711;SDS011;27399;51.516;13.670;2022-07-06T10:04:21;2.10;;;0.80;;
41711;SDS011;27399;51.516;13.670;2022-07-06T10:06:47;3.75;;;0.70;;
41711;SDS011;27399;51.516;13.670;2022-07-06T10:09:13;2.28;;;0.60;;
41711;SDS011;27399;51.516;13.670;2022-07-06T10:11:42;0.90;;;0.60;;
41711;SDS011;27399;51.516;13.670;2022-07-06T10:14:20;3.53;;;0.75;;
41711;SDS011;27399;51.516;13.670;2022-07-06T10:16:47;3.45;;;0.80;;
41711;SDS011;27399;51.516;13.670;2022-07-06T10:19:16;2.00;;;0.60;;
41711;SDS011;27399;51.516;13.670;2022-07-06T10:21:43;2.50;;;0.80;;
41711;SDS011;27399;51.516;13.670;2022-07-06T10:24:10;7.70;;;1.13;;
41711;SDS011;27399;51.516;13.670;2022-07-06T10:26:37;2.65;;;0.75;;
41711;SDS011;27399;51.516;13.670;2022-07-06T10:29:04;3.95;;;0.68;;
41711;SDS011;27399;51.516;13.670;2022-07-06T10:31:31;2.53;;;0.75;;
41711;SDS011;27399;51.516;13.670;2022-07-06T10:34:03;4.55;;;0.68;;
41711;SDS011;27399;51.516;13.670;2022-07-06T10:36:31;3.47;;;0.65;;
41711;SDS011;27399;51.516;13.670;2022-07-06T10:39:02;2.88;;;0.70;;
41711;SDS011;27399;51.516;13.670;2022-07-06T10:41:48;3.58;;;1.40;;
41711;SDS011;27399;51.516;13.670;2022-07-06T10:44:15;5.88;;;0.80;;
41711;SDS011;27399;51.516;13.670;2022-07-06T10:46:42;2.33;;;0.82;;
41711;SDS011;27399;51.516;13.670;2022-07-06T10:49:15;1.17;;;0.60;;
41711;SDS011;27399;51.516;13.670;2022-07-06T10:51:41;4.75;;;0.85;;
41711;SDS011;27399;51.516;13.670;2022-07-06T10:54:07;2.67;;;0.55;;
41711;SDS011;27399;51.516;13.670;2022-07-06T10:59:11;4.10;;;0.98;;
41711;SDS011;27399;51.516;13.670;2022-07-06T11:01:38;4.63;;;0.80;;
41711;SDS011;27399;51.516;13.670;2022-07-06T11:04:05;4.93;;;0.60;;
41711;SDS011;27399;51.516;13.670;2022-07-06T11:06:33;1.30;;;0.63;;
41711;SDS011;27399;51.516;13.670;2022-07-06T11:09:09;2.88;;;0.70;;
41711;SDS011;27399;51.516;13.670;2022-07-06T11:14:05;0.80;;;0.50;;
41711;SDS011;27399;51.516;13.670;2022-07-06T11:16:33;4.32;;;0.65;;
41711;SDS011;27399;51.516;13.670;2022-07-06T11:21:35;1.33;;;0.50;;
41711;SDS011;27399;51.516;13.670;2022-07-06T11:24:10;1.63;;;0.50;;
41711;SDS011;27399;51.516;13.670;2022-07-06T11:26:38;7.45;;;1.15;;
41711;SDS011;27399;51.516;13.670;2022-07-06T11:29:05;3.42;;;0.82;;
41711;SDS011;27399;51.516;13.670;2022-07-06T11:31:34;1.10;;;0.55;;
41711;SDS011;27399;51.516;13.670;2022-07-06T11:34:02;1.75;;;0.70;;
41711;SDS011;27399;51.516;13.670;2022-07-06T11:36:32;3.28;;;0.77;;
41711;SDS011;27399;51.516;13.670;2022-07-06T11:38:59;2.47;;;0.90;;
41711;SDS011;27399;51.516;13.670;2022-07-06T11:41:25;2.72;;;0.70;;
41711;SDS011;27399;51.516;13.670;2022-07-06T11:43:50;2.17;;;1.10;;
41711;SDS011;27399;51.516;13.670;2022-07-06T11:51:28;1.27;;;0.40;;
41711;SDS011;27399;51.516;13.670;2022-07-06T11:53:55;3.38;;;0.80;;
41711;SDS011;27399;51.516;13.670;2022-07-06T11:56:24;2.75;;;0.70;;
41711;SDS011;27399;51.516;13.670;2022-07-06T11:58:55;1.90;;;0.63;;
41711;SDS011;27399;51.516;13.670;2022-07-06T12:01:23;3.03;;;0.60;;
41711;SDS011;27399;51.516;13.670;2022-07-06T12:03:51;5.03;;;0.75;;
41711;SDS011;27399;51.516;13.670;2022-07-06T12:06:18;4.18;;;0.70;;
41711;SDS011;27399;51.516;13.670;2022-07-06T12:08:53;1.20;;;0.55;;
41711;SDS011;27399;51.516;13.670;2022-07-06T12:11:21;1.55;;;0.73;;
41711;SDS011;27399;51.516;13.670;2022-07-06T12:13:51;3.88;;;0.57;;
41711;SDS011;27399;51.516;13.670;2022-07-06T12:16:19;2.05;;;0.80;;
41711;SDS011;27399;51.516;13.670;2022-07-06T12:18:48;6.57;;;0.98;;
41711;SDS011;27399;51.516;13.670;2022-07-06T12:21:15;3.60;;;0.70;;
41711;SDS011;27399;51.516;13.670;2022-07-06T12:23:44;2.30;;;0.60;;
41711;SDS011;27399;51.516;13.670;2022-07-06T12:26:11;3.00;;;0.77;;
41711;SDS011;27399;51.516;13.670;2022-07-06T12:28:41;2.83;;;0.83;;
41711;SDS011;27399;51.516;13.670;2022-07-06T12:31:08;3.03;;;1.00;;
41711;SDS011;27399;51.516;13.670;2022-07-06T12:33:34;0.95;;;0.60;;
41711;SDS011;27399;51.516;13.670;2022-07-06T12:38:55;1.65;;;0.60;;
41711;SDS011;27399;51.516;13.670;2022-07-06T12:41:31;1.58;;;0.57;;
41711;SDS011;27399;51.516;13.670;2022-07-06T12:44:02;10.40;;;1.00;;
41711;SDS011;27399;51.516;13.670;2022-07-06T12:46:33;3.08;;;0.90;;
41711;SDS011;27399;51.516;13.670;2022-07-06T12:49:02;2.72;;;0.77;;
41711;SDS011;27399;51.516;13.670;2022-07-06T12:51:51;1.48;;;0.60;;
41711;SDS011;27399;51.516;13.670;2022-07-06T12:54:46;2.25;;;0.57;;
41711;SDS011;27399;51.516;13.670;2022-07-06T12:57:22;1.73;;;0.50;;
41711;SDS011;27399;51.516;13.670;2022-07-06T13:02:23;1.35;;;0.35;;
41711;SDS011;27399;51.516;13.670;2022-07-06T13:07:29;2.90;;;0.60;;
41711;SDS011;27399;51.516;13.670;2022-07-06T13:09:57;2.33;;;0.90;;
41711;SDS011;27399;51.516;13.670;2022-07-06T13:12:23;4.10;;;0.80;;
41711;SDS011;27399;51.516;13.670;2022-07-06T13:14:49;3.00;;;0.50;;
41711;SDS011;27399;51.516;13.670;2022-07-06T13:17:16;3.35;;;0.80;;
41711;SDS011;27399;51.516;13.670;2022-07-06T13:19:42;3.78;;;0.65;;
41711;SDS011;27399;51.516;13.670;2022-07-06T13:22:08;1.85;;;0.70;;
41711;SDS011;27399;51.516;13.670;2022-07-06T13:24:33;1.85;;;0.47;;
41711;SDS011;27399;51.516;13.670;2022-07-06T13:26:59;2.92;;;0.70;;
41711;SDS011;27399;51.516;13.670;2022-07-06T13:29:25;2.20;;;0.52;;
41711;SDS011;27399;51.516;13.670;2022-07-06T13:31:51;2.33;;;0.60;;
41711;SDS011;27399;51.516;13.670;2022-07-06T13:34:16;1.55;;;0.50;;
41711;SDS011;27399;51.516;13.670;2022-07-06T13:36:42;2.78;;;0.68;;
41711;SDS011;27399;51.516;13.670;2022-07-06T13:39:08;4.35;;;0.60;;
41711;SDS011;27399;51.516;13.670;2022-07-06T13:41:34;3.92;;;0.85;;
41711;SDS011;27399;51.516;13.670;2022-07-06T13:44:00;2.45;;;0.57;;
41711;SDS011;27399;51.516;13.670;2022-07-06T13:46:27;3.33;;;0.60;;
41711;SDS011;27399;51.516;13.670;2022-07-06T13:48:53;2.70;;;0.60;;
41711;SDS011;27399;51.516;13.670;2022-07-06T13:51:19;2.60;;;0.50;;
41711;SDS011;27399;51.516;13.670;2022-07-06T13:53:45;4.93;;;0.63;;
41711;SDS011;27399;51.516;13.670;2022-07-06T13:56:11;2.15;;;0.65;;
41711;SDS011;27399;51.516;13.670;2022-07-06T13:58:38;3.83;;;0.63;;
41711;SDS011;27399;51.516;13.670;2022-07-06T14:01:04;1.73;;;0.60;;
41711;SDS011;27399;51.516;13.670;2022-07-06T14:03:30;2.33;;;0.50;;
41711;SDS011;27399;51.516;13.670;2022-07-06T14:06:00;4.90;;;0.50;;
41711;SDS011;27399;51.516;13.670;2022-07-06T14:08:27;4.97;;;0.70;;
41711;SDS011;27399;51.516;13.670;2022-07-06T14:10:53;3.10;;;0.60;;
41711;SDS011;27399;51.516;13.670;2022-07-06T14:13:20;1.75;;;0.60;;
41711;SDS011;27399;51.516;13.670;2022-07-06T14:15:46;2.83;;;0.65;;
41711;SDS011;27399;51.516;13.670;2022-07-06T14:18:12;1.52;;;0.70;;
41711;SDS011;27399;51.516;13.670;2022-07-06T14:20:39;2.40;;;0.70;;
41711;SDS011;27399;51.516;13.670;2022-07-06T14:23:05;3.00;;;1.15;;
41711;SDS011;27399;51.516;13.670;2022-07-06T14:25:32;1.05;;;0.50;;
41711;SDS011;27399;51.516;13.670;2022-07-06T14:27:58;2.55;;;0.60;;
41711;SDS011;27399;51.516;13.670;2022-07-06T14:30:24;1.85;;;0.50;;
41711;SDS011;27399;51.516;13.670;2022-07-06T14:32:50;3.17;;;1.38;;
41711;SDS011;27399;51.516;13.670;2022-07-06T14:35:16;2.53;;;0.47;;
41711;SDS011;27399;51.516;13.670;2022-07-06T14:37:42;0.93;;;0.30;;
41711;SDS011;27399;51.516;13.670;2022-07-06T14:40:07;5.95;;;0.60;;
41711;SDS011;27399;51.516;13.670;2022-07-06T14:42:34;1.05;;;0.52;;
41711;SDS011;27399;51.516;13.670;2022-07-06T14:45:00;1.98;;;0.63;;
41711;SDS011;27399;51.516;13.670;2022-07-06T14:47:25;2.72;;;0.40;;
41711;SDS011;27399;51.516;13.670;2022-07-06T14:49:51;3.25;;;0.40;;
41711;SDS011;27399;51.516;13.670;2022-07-06T14:52:18;0.98;;;0.50;;
41711;SDS011;27399;51.516;13.670;2022-07-06T14:54:44;3.40;;;0.40;;
41711;SDS011;27399;51.516;13.670;2022-07-06T14:57:09;2.88;;;0.52;;